LFLY/LYN METAR and TAF weather

Enter ICAO airport designator
Station Type Date Time Source
LFLY METAR 2022/10/01 08:30 UTC NOAA

LFLY 010830Z AUTO 17008KT 7000 RA SCT036/// BKN046/// OVC052/// ///TCU 10/09 Q1020 TEMPO 4000 RA BECMG OVC040


Station Type Date Time Source
LFLY Decoded METAR 2022/10/01 08:30 UTC NOAA

Lyon / Bron, France (LFLY) 45-43N 004-57E 201M
Oct 01, 2022 - 04:30 AM EDT / 2022.10.01 0830 UTC
Wind: from the S (170 degrees) at 9 MPH (8 KT):0
Visibility: 4 mile(s):0
Sky conditions: overcast
Weather: rain; Towering cumulus clouds observed
Temperature: 50 F (10 C)
Dew Point: 48 F (9 C)
Relative Humidity: 93%
Pressure (altimeter): 30.12 in. Hg (1020 hPa)
ob: LFLY 010830Z AUTO 17008KT 7000 RA SCT036/// BKN046/// OVC052/// ///TCU 10/09 Q1020 TEMPO 4000 RA BECMG OVC040
cycle: 8

Station Type Date Time Source
LFLY TAF 2022/10/01 08:09 UTC NOAA

TAF
AMD TAF
AMD LFLY 010806Z 0108/0206 17006KT 9999 OVC040
TEMPO 0108/0112 4000 RA PROB30
TEMPO 0113/0124 RA

Example: see airport list